Time;durP1;ratioP1;P1;durP2;ratioP2;P2;SDS_P1;SDS_P2;PMS_P1;PMS_P2;Temp;Humidity;BMP_temperature;BMP_pressure;BME280_temperature;BME280_humidity;BME280_pressure;Samples;Min_cycle;Max_cycle;Signal;HPM_P1;HPM_P2
2021/05/15 00:01:46;;;;;;;1.02;1.00;;;;;;;;;;5112812;28;20209;-40
2021/05/15 00:04:12;;;;;;;1.02;1.00;;;;;;;;;;5114802;28;20288;-39
2021/05/15 00:06:38;;;;;;;1.40;1.30;;;;;;;;;;5114896;28;20188;-40
2021/05/15 00:09:04;;;;;;;1.00;1.00;;;;;;;;;;5115196;28;20237;-39
2021/05/15 00:11:30;;;;;;;1.38;1.20;;;;;;;;;;5114372;28;20445;-39
2021/05/15 00:13:56;;;;;;;1.20;1.13;;;;;;;;;;5114741;28;20480;-39
2021/05/15 00:16:23;;;;;;;1.23;1.13;;;;;;;;;;5114750;28;20463;-39
2021/05/15 00:18:49;;;;;;;1.05;1.00;;;;;;;;;;5095675;28;20532;-40
2021/05/15 00:21:15;;;;;;;1.27;1.17;;;;;;;;;;5094540;28;20200;-40
2021/05/15 00:23:41;;;;;;;1.48;1.20;;;;;;;;;;5112140;28;20449;-40
2021/05/15 00:26:07;;;;;;;1.55;1.38;;;;;;;;;;5114785;28;20161;-40
2021/05/15 00:28:33;;;;;;;1.33;1.23;;;;;;;;;;5114863;28;20169;-40
2021/05/15 00:30:59;;;;;;;1.35;1.13;;;;;;;;;;5114138;28;20426;-40
2021/05/15 00:33:25;;;;;;;1.35;1.25;;;;;;;;;;5114804;28;20212;-40
2021/05/15 00:35:52;;;;;;;1.27;1.20;;;;;;;;;;5101924;28;20189;-40
2021/05/15 00:38:18;;;;;;;1.27;1.10;;;;;;;;;;5112396;28;20199;-40
2021/05/15 00:40:44;;;;;;;1.00;1.00;;;;;;;;;;5096801;28;20177;-40
2021/05/15 00:43:10;;;;;;;1.38;1.02;;;;;;;;;;5110888;28;20253;-40
2021/05/15 00:45:37;;;;;;;1.00;1.00;;;;;;;;;;5094350;28;20508;-40
2021/05/15 00:48:03;;;;;;;1.85;1.10;;;;;;;;;;5114595;28;20438;-40
2021/05/15 00:50:30;;;;;;;1.10;1.10;;;;;;;;;;5113822;28;20272;-40
2021/05/15 00:52:56;;;;;;;1.35;1.25;;;;;;;;;;5114239;28;20646;-40
2021/05/15 00:55:22;;;;;;;1.00;1.00;;;;;;;;;;5114841;28;20559;-40
2021/05/15 00:57:48;;;;;;;1.30;1.20;;;;;;;;;;5108572;28;20170;-40
2021/05/15 01:00:16;;;;;;;1.05;1.05;;;;;;;;;;5113413;28;20184;-40
2021/05/15 01:02:42;;;;;;;1.20;1.10;;;;;;;;;;5113790;28;20220;-40
2021/05/15 01:05:09;;;;;;;1.20;1.10;;;;;;;;;;5114802;28;20568;-40
2021/05/15 01:07:35;;;;;;;1.27;1.00;;;;;;;;;;5114582;28;20169;-40
2021/05/15 01:10:01;;;;;;;1.20;1.10;;;;;;;;;;5113811;28;20197;-40
2021/05/15 01:12:28;;;;;;;1.10;1.00;;;;;;;;;;5113880;28;20305;-40
2021/05/15 01:14:54;;;;;;;0.93;0.93;;;;;;;;;;5114128;28;20267;-40
2021/05/15 01:17:20;;;;;;;1.00;1.00;;;;;;;;;;5113989;28;20264;-40
2021/05/15 01:19:46;;;;;;;1.00;1.00;;;;;;;;;;5114257;28;21570;-40
2021/05/15 01:22:16;;;;;;;1.00;1.00;;;;;;;;;;5113479;28;20208;-40
2021/05/15 01:24:43;;;;;;;1.30;1.20;;;;;;;;;;5103209;28;20188;-40
2021/05/15 01:27:10;;;;;;;1.10;0.85;;;;;;;;;;5094619;28;20176;-40
2021/05/15 01:29:37;;;;;;;1.08;1.05;;;;;;;;;;5107798;28;20214;-40
2021/05/15 01:32:03;;;;;;;1.00;1.00;;;;;;;;;;5113877;28;20191;-40
2021/05/15 01:34:29;;;;;;;1.23;0.90;;;;;;;;;;5115059;28;20184;-39
2021/05/15 01:36:55;;;;;;;1.10;1.00;;;;;;;;;;5117716;28;20181;-40
2021/05/15 01:39:21;;;;;;;1.00;1.00;;;;;;;;;;5117997;28;20274;-40
2021/05/15 01:41:48;;;;;;;0.90;0.90;;;;;;;;;;5116855;28;20177;-40
2021/05/15 01:44:16;;;;;;;0.88;0.88;;;;;;;;;;5097654;28;20572;-40
2021/05/15 01:46:42;;;;;;;1.05;1.00;;;;;;;;;;5104676;28;20172;-40
2021/05/15 01:49:08;;;;;;;1.00;1.00;;;;;;;;;;5117435;28;20173;-39
2021/05/15 01:51:34;;;;;;;1.20;1.08;;;;;;;;;;5117131;28;20196;-40
2021/05/15 01:54:01;;;;;;;0.80;0.80;;;;;;;;;;5117507;28;20189;-40
2021/05/15 01:56:28;;;;;;;0.90;0.90;;;;;;;;;;5117220;28;20854;-40
2021/05/15 01:58:54;;;;;;;1.00;0.90;;;;;;;;;;5099814;28;20196;-40
2021/05/15 02:01:21;;;;;;;1.00;1.00;;;;;;;;;;5116914;28;20268;-40
2021/05/15 02:03:47;;;;;;;1.00;1.00;;;;;;;;;;5117140;28;20208;-40
2021/05/15 02:06:13;;;;;;;1.10;1.10;;;;;;;;;;5117277;28;20540;-40
2021/05/15 02:08:41;;;;;;;1.40;1.02;;;;;;;;;;5116972;28;20184;-39
2021/05/15 02:11:07;;;;;;;1.25;1.15;;;;;;;;;;5115465;28;20166;-40
2021/05/15 02:13:34;;;;;;;1.08;1.00;;;;;;;;;;5116472;28;20165;-40
2021/05/15 02:16:00;;;;;;;1.13;1.00;;;;;;;;;;5117626;28;20188;-40
2021/05/15 02:18:27;;;;;;;1.20;1.10;;;;;;;;;;5116974;28;20181;-40
2021/05/15 02:20:53;;;;;;;1.98;1.10;;;;;;;;;;5100242;28;20463;-40
2021/05/15 02:23:20;;;;;;;1.55;0.90;;;;;;;;;;5111611;28;20542;-40
2021/05/15 02:25:46;;;;;;;0.70;0.70;;;;;;;;;;5109414;28;20460;-39
2021/05/15 02:28:13;;;;;;;0.90;0.90;;;;;;;;;;5113996;28;20173;-40
2021/05/15 02:30:39;;;;;;;1.20;1.10;;;;;;;;;;5116853;28;20226;-40
2021/05/15 02:33:05;;;;;;;0.90;0.90;;;;;;;;;;5117125;28;20533;-40
2021/05/15 02:35:31;;;;;;;0.70;0.70;;;;;;;;;;5107399;28;20253;-40
2021/05/15 02:37:58;;;;;;;0.80;0.80;;;;;;;;;;5110990;28;20174;-40
2021/05/15 02:40:24;;;;;;;0.88;0.88;;;;;;;;;;5116547;28;20510;-40
2021/05/15 02:42:51;;;;;;;1.25;1.02;;;;;;;;;;5116712;28;20583;-40
2021/05/15 02:45:19;;;;;;;1.33;1.23;;;;;;;;;;5117012;28;20248;-40
2021/05/15 02:47:45;;;;;;;1.05;0.95;;;;;;;;;;5116354;28;20230;-39
2021/05/15 02:50:11;;;;;;;0.90;0.90;;;;;;;;;;5104893;28;20177;-40
2021/05/15 02:52:37;;;;;;;0.90;0.90;;;;;;;;;;5108201;28;20293;-40
2021/05/15 02:55:04;;;;;;;0.70;0.70;;;;;;;;;;5116757;28;20177;-40
2021/05/15 02:57:30;;;;;;;0.90;0.90;;;;;;;;;;5116375;28;20189;-40
2021/05/15 02:59:56;;;;;;;0.80;0.77;;;;;;;;;;5116306;28;20508;-40
2021/05/15 03:02:22;;;;;;;0.90;0.90;;;;;;;;;;5116118;28;20201;-40
2021/05/15 03:04:48;;;;;;;0.85;0.85;;;;;;;;;;5106008;28;20598;-40
2021/05/15 03:07:14;;;;;;;1.10;1.00;;;;;;;;;;5109187;28;20184;-40
2021/05/15 03:09:43;;;;;;;0.68;0.68;;;;;;;;;;5116582;28;20180;-40
2021/05/15 03:12:09;;;;;;;1.27;0.80;;;;;;;;;;5116048;28;20260;-40
2021/05/15 03:14:35;;;;;;;0.90;0.90;;;;;;;;;;5099914;28;20269;-40
2021/05/15 03:17:01;;;;;;;0.80;0.80;;;;;;;;;;5102311;28;20276;-40
2021/05/15 03:19:27;;;;;;;0.60;0.60;;;;;;;;;;5110747;28;20181;-40
2021/05/15 03:21:53;;;;;;;0.90;0.90;;;;;;;;;;5114983;28;20184;-40
2021/05/15 03:24:19;;;;;;;0.90;0.90;;;;;;;;;;5115853;28;20260;-40
2021/05/15 03:26:45;;;;;;;0.77;0.77;;;;;;;;;;5115794;28;20184;-40
2021/05/15 03:29:11;;;;;;;0.85;0.85;;;;;;;;;;5116052;28;20306;-40
2021/05/15 03:31:37;;;;;;;0.70;0.70;;;;;;;;;;5115405;28;20247;-40
2021/05/15 03:34:03;;;;;;;0.70;0.70;;;;;;;;;;5097000;28;20252;-40
2021/05/15 03:36:29;;;;;;;0.80;0.80;;;;;;;;;;5098864;28;20173;-40
2021/05/15 03:38:55;;;;;;;0.80;0.80;;;;;;;;;;5115670;28;20181;-39
2021/05/15 03:41:21;;;;;;;0.70;0.70;;;;;;;;;;5114911;28;20246;-40
2021/05/15 03:43:47;;;;;;;0.75;0.75;;;;;;;;;;5099968;28;20208;-40
2021/05/15 03:46:13;;;;;;;0.70;0.70;;;;;;;;;;5115437;28;20165;-40
2021/05/15 03:48:39;;;;;;;2.20;0.80;;;;;;;;;;5114946;28;20445;-39
2021/05/15 03:51:05;;;;;;;0.80;0.80;;;;;;;;;;5114899;28;20256;-40
2021/05/15 03:53:31;;;;;;;0.60;0.60;;;;;;;;;;5115061;28;20179;-40
2021/05/15 03:55:57;;;;;;;0.70;0.70;;;;;;;;;;5115053;28;20173;-40
2021/05/15 03:58:23;;;;;;;0.63;0.63;;;;;;;;;;5111374;28;20177;-40
2021/05/15 04:00:49;;;;;;;0.85;0.85;;;;;;;;;;5114887;28;20197;-40
2021/05/15 04:03:15;;;;;;;1.08;0.85;;;;;;;;;;5115154;28;20189;-39
2021/05/15 04:05:41;;;;;;;1.02;1.00;;;;;;;;;;5115226;28;20244;-40
2021/05/15 04:08:07;;;;;;;1.15;1.05;;;;;;;;;;5114524;28;20268;-40
2021/05/15 04:10:33;;;;;;;1.27;0.80;;;;;;;;;;5110488;28;20176;-40
2021/05/15 04:13:22;;;;;;;2.15;1.30;;;;;;;;;;5097736;28;20173;-40
2021/05/15 04:15:55;;;;;;;1.10;1.00;;;;;;;;;;5111292;28;20179;-40
2021/05/15 04:18:21;;;;;;;2.42;1.38;;;;;;;;;;5114699;28;20264;-39
2021/05/15 04:20:47;;;;;;;1.30;1.20;;;;;;;;;;5114611;28;20185;-40
2021/05/15 04:23:14;;;;;;;1.10;1.00;;;;;;;;;;5114815;28;20216;-40
2021/05/15 04:25:40;;;;;;;2.33;1.10;;;;;;;;;;5111623;28;20196;-39
2021/05/15 04:28:06;;;;;;;1.55;1.10;;;;;;;;;;5112316;28;20176;-39
2021/05/15 04:30:33;;;;;;;1.20;1.10;;;;;;;;;;5114362;28;20169;-39
2021/05/15 04:33:00;;;;;;;1.17;1.08;;;;;;;;;;5114759;28;20205;-39
2021/05/15 04:35:26;;;;;;;0.85;0.85;;;;;;;;;;5114488;28;20180;-40
2021/05/15 04:37:52;;;;;;;1.30;1.05;;;;;;;;;;5114570;28;20177;-40
2021/05/15 04:40:18;;;;;;;1.42;1.10;;;;;;;;;;5101784;28;20452;-40
2021/05/15 04:42:44;;;;;;;1.02;0.90;;;;;;;;;;5094710;28;20197;-40
2021/05/15 04:45:11;;;;;;;1.23;1.10;;;;;;;;;;5114399;28;20165;-40
2021/05/15 04:47:38;;;;;;;1.20;1.00;;;;;;;;;;5114794;28;20184;-40
2021/05/15 04:50:05;;;;;;;1.20;1.10;;;;;;;;;;5114770;28;20583;-40
2021/05/15 04:52:31;;;;;;;0.77;0.77;;;;;;;;;;5113964;28;20560;-39
2021/05/15 04:54:57;;;;;;;1.52;1.13;;;;;;;;;;5111073;28;20184;-40
2021/05/15 04:57:23;;;;;;;2.33;1.10;;;;;;;;;;5114363;28;20603;-40
2021/05/15 04:59:49;;;;;;;1.02;0.95;;;;;;;;;;5113712;28;20178;-40
2021/05/15 05:02:15;;;;;;;1.08;0.90;;;;;;;;;;5113828;28;20208;-40
2021/05/15 05:04:42;;;;;;;1.27;1.00;;;;;;;;;;5114331;28;20571;-39
2021/05/15 05:07:08;;;;;;;0.98;0.98;;;;;;;;;;5113967;28;20173;-40
2021/05/15 05:09:34;;;;;;;1.00;1.00;;;;;;;;;;5115220;28;20173;-40
2021/05/15 05:12:00;;;;;;;0.88;0.88;;;;;;;;;;5118091;28;20176;-39
2021/05/15 05:14:26;;;;;;;0.85;0.77;;;;;;;;;;5118367;28;20161;-39
2021/05/15 05:16:55;;;;;;;1.10;1.00;;;;;;;;;;5118465;28;20448;-39
2021/05/15 05:19:22;;;;;;;0.75;0.70;;;;;;;;;;5118051;28;20259;-40
2021/05/15 05:21:48;;;;;;;0.70;0.70;;;;;;;;;;5117313;28;20224;-40
2021/05/15 05:24:14;;;;;;;0.70;0.68;;;;;;;;;;5107028;28;20211;-40
2021/05/15 05:26:40;;;;;;;0.73;0.70;;;;;;;;;;5117951;28;20191;-40
2021/05/15 05:29:08;;;;;;;1.05;0.70;;;;;;;;;;5118109;28;20170;-40
2021/05/15 05:31:38;;;;;;;0.75;0.60;;;;;;;;;;5117913;28;20165;-40
2021/05/15 05:34:04;;;;;;;0.70;0.70;;;;;;;;;;5117644;28;20185;-40
2021/05/15 05:36:30;;;;;;;0.88;0.80;;;;;;;;;;5116950;28;20177;-40
2021/05/15 05:38:56;;;;;;;0.88;0.77;;;;;;;;;;5117702;28;20179;-40
2021/05/15 05:41:24;;;;;;;0.80;0.80;;;;;;;;;;5117282;28;20177;-40
2021/05/15 05:43:51;;;;;;;0.52;0.50;;;;;;;;;;5117839;28;20221;-40
2021/05/15 05:46:17;;;;;;;0.60;0.60;;;;;;;;;;5117831;28;20188;-40
2021/05/15 05:48:43;;;;;;;0.70;0.70;;;;;;;;;;5117830;28;20169;-40
2021/05/15 05:51:09;;;;;;;0.70;0.70;;;;;;;;;;5116192;28;20177;-39
2021/05/15 05:53:35;;;;;;;1.50;0.80;;;;;;;;;;5114338;28;20205;-40
2021/05/15 05:56:01;;;;;;;0.70;0.50;;;;;;;;;;5117318;28;20188;-40
2021/05/15 05:58:27;;;;;;;0.47;0.47;;;;;;;;;;5117446;28;20173;-40
2021/05/15 06:00:53;;;;;;;0.63;0.60;;;;;;;;;;5116744;28;20201;-40
2021/05/15 06:03:19;;;;;;;1.05;0.60;;;;;;;;;;5117159;28;20199;-40
2021/05/15 06:05:44;;;;;;;0.50;0.50;;;;;;;;;;5110176;28;20162;-40
2021/05/15 06:08:11;;;;;;;0.60;0.50;;;;;;;;;;5110238;28;20483;-40
2021/05/15 06:10:38;;;;;;;0.70;0.70;;;;;;;;;;5113305;28;20192;-40
2021/05/15 06:13:05;;;;;;;0.52;0.45;;;;;;;;;;5117520;28;20169;-40
2021/05/15 06:15:31;;;;;;;0.73;0.57;;;;;;;;;;5117326;28;20181;-40
2021/05/15 06:17:57;;;;;;;0.50;0.47;;;;;;;;;;5099220;28;20177;-39
2021/05/15 06:20:23;;;;;;;0.47;0.47;;;;;;;;;;5115918;28;20195;-40
2021/05/15 06:22:49;;;;;;;0.50;0.50;;;;;;;;;;5116145;28;20200;-39
2021/05/15 06:25:15;;;;;;;0.82;0.60;;;;;;;;;;5116549;28;20475;-40
2021/05/15 06:27:41;;;;;;;0.63;0.60;;;;;;;;;;5116619;28;20185;-39
2021/05/15 06:30:08;;;;;;;1.48;0.50;;;;;;;;;;5117094;28;20201;-39
2021/05/15 06:32:34;;;;;;;0.73;0.63;;;;;;;;;;5115240;28;20263;-40
2021/05/15 06:35:00;;;;;;;2.20;0.50;;;;;;;;;;5116054;28;20260;-40
2021/05/15 06:37:26;;;;;;;0.88;0.60;;;;;;;;;;5098947;28;20544;-39
2021/05/15 06:39:52;;;;;;;0.70;0.70;;;;;;;;;;5116627;28;20205;-39
2021/05/15 06:42:18;;;;;;;3.72;1.15;;;;;;;;;;5116348;28;20227;-40
2021/05/15 06:44:44;;;;;;;16.58;3.40;;;;;;;;;;5102574;28;20256;-40
2021/05/15 06:47:14;;;;;;;19.10;4.35;;;;;;;;;;5116708;28;20200;-39
2021/05/15 06:49:40;;;;;;;20.98;3.70;;;;;;;;;;5116024;28;20200;-39
2021/05/15 06:52:06;;;;;;;14.40;3.33;;;;;;;;;;5115804;28;20269;-40
2021/05/15 06:54:32;;;;;;;9.63;2.50;;;;;;;;;;5116185;28;20575;-40
2021/05/15 06:56:58;;;;;;;7.72;2.47;;;;;;;;;;5116495;28;20169;-40
2021/05/15 06:59:24;;;;;;;6.82;1.98;;;;;;;;;;5116562;28;20275;-40
2021/05/15 07:01:50;;;;;;;5.05;1.80;;;;;;;;;;5115707;28;20197;-40
2021/05/15 07:04:16;;;;;;;7.30;2.38;;;;;;;;;;5115439;28;20452;-40
2021/05/15 07:06:42;;;;;;;8.45;1.77;;;;;;;;;;5116191;28;20250;-40
2021/05/15 07:09:08;;;;;;;6.53;1.90;;;;;;;;;;5115741;28;20625;-39
2021/05/15 07:11:34;;;;;;;4.95;1.50;;;;;;;;;;5115949;28;20173;-40
2021/05/15 07:14:00;;;;;;;2.72;1.60;;;;;;;;;;5116225;28;20263;-40
2021/05/15 07:16:26;;;;;;;3.55;1.42;;;;;;;;;;5116697;28;20254;-40
2021/05/15 07:18:52;;;;;;;4.10;1.50;;;;;;;;;;5112527;28;20177;-40
2021/05/15 07:21:18;;;;;;;4.82;1.67;;;;;;;;;;5103197;28;20240;-40
2021/05/15 07:23:44;;;;;;;6.50;1.48;;;;;;;;;;5105511;28;20259;-40
2021/05/15 07:26:11;;;;;;;5.25;1.50;;;;;;;;;;5108658;28;20264;-40
2021/05/15 07:28:37;;;;;;;6.00;1.63;;;;;;;;;;5109849;28;20177;-40
2021/05/15 07:31:03;;;;;;;6.35;1.55;;;;;;;;;;5110781;28;20173;-40
2021/05/15 07:33:29;;;;;;;4.93;1.75;;;;;;;;;;5115287;28;20169;-40
2021/05/15 07:35:55;;;;;;;6.53;1.58;;;;;;;;;;5115361;28;20237;-40
2021/05/15 07:38:22;;;;;;;8.52;2.15;;;;;;;;;;5115319;28;20185;-40
2021/05/15 07:40:49;;;;;;;8.13;1.63;;;;;;;;;;5115352;28;20169;-39
2021/05/15 07:43:16;;;;;;;4.22;1.55;;;;;;;;;;5115233;28;20333;-40
2021/05/15 07:45:42;;;;;;;5.25;1.52;;;;;;;;;;5113734;28;20181;-40
2021/05/15 07:48:08;;;;;;;4.57;1.50;;;;;;;;;;5113922;28;20193;-40
2021/05/15 07:50:34;;;;;;;3.28;1.60;;;;;;;;;;5094302;28;20170;-40
2021/05/15 07:53:00;;;;;;;6.50;2.38;;;;;;;;;;5104932;28;20238;-42
2021/05/15 07:55:26;;;;;;;8.75;1.95;;;;;;;;;;5115493;28;20176;-40
2021/05/15 07:57:52;;;;;;;4.03;1.67;;;;;;;;;;5115349;28;20264;-40
2021/05/15 08:00:18;;;;;;;4.55;1.50;;;;;;;;;;5115071;28;20192;-40
2021/05/15 08:02:44;;;;;;;3.22;1.35;;;;;;;;;;5113361;28;20211;-40
2021/05/15 08:05:10;;;;;;;4.97;1.60;;;;;;;;;;5114975;28;20173;-40
2021/05/15 08:07:37;;;;;;;7.20;1.27;;;;;;;;;;5110491;28;20218;-40
2021/05/15 08:10:04;;;;;;;5.18;1.63;;;;;;;;;;5102433;28;20429;-40
2021/05/15 08:12:30;;;;;;;7.15;1.60;;;;;;;;;;5110261;28;20783;-40
2021/05/15 08:14:56;;;;;;;6.07;1.38;;;;;;;;;;5114875;28;20177;-40
2021/05/15 08:17:22;;;;;;;4.72;1.33;;;;;;;;;;5115142;28;20169;-40
2021/05/15 08:19:48;;;;;;;3.08;1.33;;;;;;;;;;5114138;28;20201;-40
2021/05/15 08:22:14;;;;;;;5.72;1.58;;;;;;;;;;5090416;28;20545;-40
2021/05/15 08:24:40;;;;;;;2.72;1.27;;;;;;;;;;5114803;28;20207;-40
2021/05/15 08:27:06;;;;;;;5.22;1.40;;;;;;;;;;5115243;28;20165;-40
2021/05/15 08:29:33;;;;;;;4.22;1.65;;;;;;;;;;5115095;28;20570;-40
2021/05/15 08:32:00;;;;;;;3.90;1.25;;;;;;;;;;5114096;28;20326;-40
2021/05/15 08:34:26;;;;;;;5.57;1.70;;;;;;;;;;5103511;28;20170;-40
2021/05/15 08:36:52;;;;;;;2.83;1.20;;;;;;;;;;5100360;28;20571;-40
2021/05/15 08:39:18;;;;;;;2.15;1.15;;;;;;;;;;5114946;28;20177;-40
2021/05/15 08:41:45;;;;;;;2.45;1.17;;;;;;;;;;5114497;28;20161;-40
2021/05/15 08:44:11;;;;;;;3.95;1.30;;;;;;;;;;5104549;28;20211;-41
2021/05/15 08:46:40;;;;;;;5.22;1.17;;;;;;;;;;5105256;28;20192;-40
2021/05/15 08:49:07;;;;;;;4.47;1.50;;;;;;;;;;5118211;28;20188;-40
2021/05/15 08:51:33;;;;;;;5.75;1.35;;;;;;;;;;5118111;28;20177;-40
2021/05/15 08:53:59;;;;;;;3.83;0.90;;;;;;;;;;5113853;28;20579;-40
2021/05/15 08:56:27;;;;;;;8.15;1.52;;;;;;;;;;5118033;28;20559;-40
2021/05/15 08:58:53;;;;;;;2.40;0.80;;;;;;;;;;5119068;28;20192;-40
2021/05/15 09:01:19;;;;;;;9.05;1.15;;;;;;;;;;5118019;28;20185;-40
2021/05/15 09:03:45;;;;;;;2.78;1.15;;;;;;;;;;5118598;28;20200;-40
2021/05/15 09:06:12;;;;;;;2.60;1.08;;;;;;;;;;5118557;28;20234;-40
2021/05/15 09:08:38;;;;;;;4.15;1.05;;;;;;;;;;5118241;28;20183;-40
2021/05/15 09:11:04;;;;;;;2.00;0.95;;;;;;;;;;5116722;28;20192;-40
2021/05/15 09:13:30;;;;;;;2.50;1.00;;;;;;;;;;5118611;28;20535;-40
2021/05/15 09:16:00;;;;;;;2.72;1.20;;;;;;;;;;5118427;28;20169;-40
2021/05/15 09:18:27;;;;;;;3.28;1.35;;;;;;;;;;5117190;28;20225;-40
2021/05/15 09:20:54;;;;;;;2.63;1.33;;;;;;;;;;5117564;28;20226;-40
2021/05/15 09:23:21;;;;;;;2.15;1.00;;;;;;;;;;5111643;28;20204;-40
2021/05/15 09:25:57;;;;;;;3.25;1.02;;;;;;;;;;5118068;28;20233;-40
2021/05/15 09:28:34;;;;;;;2.47;0.90;;;;;;;;;;5104735;28;20230;-40
2021/05/15 09:31:17;;;;;;;3.80;0.95;;;;;;;;;;5097736;28;20560;-40
2021/05/15 09:33:44;;;;;;;5.93;1.65;;;;;;;;;;5102256;28;20181;-40
2021/05/15 09:36:21;;;;;;;21.33;9.55;;;;;;;;;;5118139;28;20180;-40
2021/05/15 09:38:58;;;;;;;87.47;32.22;;;;;;;;;;5117761;28;20181;-40
2021/05/15 09:41:31;;;;;;;181.32;63.35;;;;;;;;;;5107169;28;20176;-40
2021/05/15 09:43:57;;;;;;;223.70;78.82;;;;;;;;;;5117575;28;20193;-40
2021/05/15 09:46:28;;;;;;;246.70;92.07;;;;;;;;;;5117882;28;20490;-40
2021/05/15 09:48:54;;;;;;;283.48;100.78;;;;;;;;;;5117904;28;20170;-40
2021/05/15 09:51:21;;;;;;;293.52;104.78;;;;;;;;;;5108834;28;20182;-40
2021/05/15 09:53:46;;;;;;;285.83;107.10;;;;;;;;;;5106166;28;20234;-40
2021/05/15 09:56:12;;;;;;;293.90;107.05;;;;;;;;;;5117379;28;20178;-40
2021/05/15 09:58:42;;;;;;;279.50;101.32;;;;;;;;;;5117158;28;20172;-40
2021/05/15 10:01:08;;;;;;;277.98;105.45;;;;;;;;;;5115467;28;20177;-40
2021/05/15 10:03:35;;;;;;;286.15;104.25;;;;;;;;;;5113830;28;20459;-40
2021/05/15 10:06:09;;;;;;;263.38;96.38;;;;;;;;;;5109421;28;20209;-40
2021/05/15 10:08:36;;;;;;;256.88;101.97;;;;;;;;;;5096581;28;20205;-40
2021/05/15 10:11:06;;;;;;;273.52;108.60;;;;;;;;;;5116549;28;20611;-40
2021/05/15 10:13:32;;;;;;;330.65;133.05;;;;;;;;;;5117481;28;20177;-40
2021/05/15 10:15:59;;;;;;;394.92;164.70;;;;;;;;;;5117840;28;20165;-40
2021/05/15 10:18:25;;;;;;;378.48;160.75;;;;;;;;;;5112350;28;20193;-41
2021/05/15 10:20:51;;;;;;;377.17;162.75;;;;;;;;;;5116978;28;20189;-40
2021/05/15 10:23:38;;;;;;;385.42;160.55;;;;;;;;;;5116646;28;20580;-40
2021/05/15 10:26:16;;;;;;;361.73;150.70;;;;;;;;;;5110221;28;20445;-40
2021/05/15 10:28:44;;;;;;;362.10;153.52;;;;;;;;;;5116609;28;20177;-40
2021/05/15 10:31:10;;;;;;;335.60;146.00;;;;;;;;;;5116221;28;20169;-40
2021/05/15 10:33:37;;;;;;;331.13;140.27;;;;;;;;;;5116863;28;20563;-40
2021/05/15 10:36:04;;;;;;;299.15;137.80;;;;;;;;;;5102691;28;20185;-40
2021/05/15 10:38:32;;;;;;;317.58;137.60;;;;;;;;;;5107038;28;20182;-40
2021/05/15 10:41:08;;;;;;;297.60;133.77;;;;;;;;;;5115969;28;20173;-40
2021/05/15 10:43:35;;;;;;;297.67;128.93;;;;;;;;;;5116447;28;20192;-40
2021/05/15 10:46:14;;;;;;;281.30;124.57;;;;;;;;;;5105369;28;20173;-40
2021/05/15 10:48:40;;;;;;;272.90;117.60;;;;;;;;;;5111647;28;20185;-40
2021/05/15 10:51:06;;;;;;;262.00;118.25;;;;;;;;;;5114263;28;20439;-40
2021/05/15 10:53:33;;;;;;;254.10;110.40;;;;;;;;;;5111837;28;20177;-41
2021/05/15 10:56:02;;;;;;;243.57;107.85;;;;;;;;;;5116115;28;20183;-40
2021/05/15 10:58:38;;;;;;;236.80;103.55;;;;;;;;;;5116713;28;20169;-40
2021/05/15 11:01:31;;;;;;;220.85;100.07;;;;;;;;;;5116007;28;20165;-40
2021/05/15 11:03:58;;;;;;;209.73;95.53;;;;;;;;;;5111743;28;20212;-40
2021/05/15 11:06:28;;;;;;;193.00;90.78;;;;;;;;;;5115599;28;20185;-40
2021/05/15 11:08:57;;;;;;;202.30;89.05;;;;;;;;;;5111080;28;20176;-40
2021/05/15 11:11:35;;;;;;;196.52;87.10;;;;;;;;;;5115200;28;20184;-40
2021/05/15 11:14:01;;;;;;;173.73;80.65;;;;;;;;;;5116172;28;20173;-40
2021/05/15 11:16:33;;;;;;;171.23;76.90;;;;;;;;;;5116285;28;20199;-40
2021/05/15 11:19:06;;;;;;;147.45;75.82;;;;;;;;;;5115020;28;20193;-40
2021/05/15 11:21:34;;;;;;;157.02;71.35;;;;;;;;;;5115320;28;20268;-40
2021/05/15 11:24:00;;;;;;;166.23;73.03;;;;;;;;;;5115168;28;20213;-40
2021/05/15 11:26:35;;;;;;;152.73;67.15;;;;;;;;;;5105921;28;20178;-40
2021/05/15 11:29:06;;;;;;;138.07;64.43;;;;;;;;;;5100893;28;20849;-40
2021/05/15 11:31:37;;;;;;;127.40;58.47;;;;;;;;;;5114949;28;20212;-40
2021/05/15 11:34:14;;;;;;;115.93;55.00;;;;;;;;;;5112709;28;20199;-40
2021/05/15 11:36:41;;;;;;;105.30;51.08;;;;;;;;;;5113966;28;20192;-40
2021/05/15 11:39:09;;;;;;;103.22;50.13;;;;;;;;;;5115634;28;20181;-40
2021/05/15 11:41:35;;;;;;;108.03;49.50;;;;;;;;;;5114723;28;20686;-40
2021/05/15 11:44:01;;;;;;;99.78;45.78;;;;;;;;;;5102609;28;20228;-40
2021/05/15 11:46:28;;;;;;;95.47;46.30;;;;;;;;;;5110909;28;20464;-40
2021/05/15 11:48:54;;;;;;;88.68;44.28;;;;;;;;;;5114647;28;20177;-40
2021/05/15 11:51:20;;;;;;;91.35;42.67;;;;;;;;;;5114954;28;20226;-40
2021/05/15 11:53:50;;;;;;;77.75;39.63;;;;;;;;;;5114824;28;20181;-40
2021/05/15 11:56:16;;;;;;;71.55;35.00;;;;;;;;;;5115176;28;20773;-40
2021/05/15 11:58:55;;;;;;;66.28;32.25;;;;;;;;;;5114254;28;20188;-40
2021/05/15 12:01:21;;;;;;;54.45;29.67;;;;;;;;;;5112966;28;20219;-40
2021/05/15 12:03:48;;;;;;;58.53;28.77;;;;;;;;;;5110886;28;20232;-40
2021/05/15 12:06:15;;;;;;;56.45;27.92;;;;;;;;;;5115322;28;20200;-40
2021/05/15 12:08:42;;;;;;;54.95;27.60;;;;;;;;;;5115036;28;20261;-40
2021/05/15 12:11:08;;;;;;;51.60;27.45;;;;;;;;;;5114442;28;20216;-41
2021/05/15 12:13:34;;;;;;;48.72;25.50;;;;;;;;;;5102896;28;20650;-40
2021/05/15 12:16:04;;;;;;;46.35;25.35;;;;;;;;;;5102506;28;20257;-40
2021/05/15 12:18:30;;;;;;;48.80;24.65;;;;;;;;;;5114142;28;20176;-40
2021/05/15 12:20:57;;;;;;;43.55;23.63;;;;;;;;;;5114761;28;20453;-40
2021/05/15 12:23:24;;;;;;;44.35;22.60;;;;;;;;;;5114915;28;20207;-40
2021/05/15 12:26:09;;;;;;;45.75;23.75;;;;;;;;;;5112257;28;20179;-40
2021/05/15 12:28:43;;;;;;;44.65;22.60;;;;;;;;;;5114542;28;20165;-40
2021/05/15 12:31:25;;;;;;;41.05;21.38;;;;;;;;;;5113248;28;20457;-40
2021/05/15 12:33:52;;;;;;;40.28;21.05;;;;;;;;;;5113072;28;20173;-40
2021/05/15 12:36:18;;;;;;;39.28;21.95;;;;;;;;;;5114685;28;20211;-40
2021/05/15 12:38:45;;;;;;;38.72;20.75;;;;;;;;;;5110833;28;20250;-40
2021/05/15 12:41:13;;;;;;;42.80;21.80;;;;;;;;;;5114258;28;20169;-40
2021/05/15 12:43:41;;;;;;;36.92;19.35;;;;;;;;;;5094932;28;20229;-40
2021/05/15 12:46:10;;;;;;;38.97;20.05;;;;;;;;;;5098107;28;20178;-41
2021/05/15 12:48:39;;;;;;;36.03;20.02;;;;;;;;;;5111653;28;20173;-40
2021/05/15 12:51:06;;;;;;;37.30;19.58;;;;;;;;;;5105355;28;20212;-40
2021/05/15 12:53:32;;;;;;;37.13;20.15;;;;;;;;;;5103659;28;20181;-41
2021/05/15 12:55:59;;;;;;;39.90;20.42;;;;;;;;;;5105773;28;20200;-40
2021/05/15 12:58:26;;;;;;;36.75;20.38;;;;;;;;;;5114210;28;20194;-40
2021/05/15 13:00:52;;;;;;;38.88;19.95;;;;;;;;;;5114245;28;20184;-40
2021/05/15 13:03:21;;;;;;;47.20;21.60;;;;;;;;;;5114070;28;20197;-40
2021/05/15 13:05:47;;;;;;;44.40;21.40;;;;;;;;;;5115217;28;20264;-40
2021/05/15 13:08:13;;;;;;;53.58;22.48;;;;;;;;;;5092620;28;20225;-40
2021/05/15 13:10:39;;;;;;;55.05;23.38;;;;;;;;;;5097664;28;20281;-40
2021/05/15 13:13:05;;;;;;;57.30;23.48;;;;;;;;;;5110510;28;20185;-40
2021/05/15 13:15:32;;;;;;;55.13;24.58;;;;;;;;;;5114063;28;20487;-40
2021/05/15 13:18:24;;;;;;;53.38;24.20;;;;;;;;;;5114760;28;20180;-40
2021/05/15 13:20:50;;;;;;;64.07;24.20;;;;;;;;;;5090476;28;20293;-40
2021/05/15 13:23:16;;;;;;;66.60;26.35;;;;;;;;;;5107668;28;20216;-40
2021/05/15 13:25:42;;;;;;;55.08;23.75;;;;;;;;;;5104628;28;20177;-40
2021/05/15 13:28:08;;;;;;;58.97;24.70;;;;;;;;;;5107183;28;20620;-41
2021/05/15 13:30:34;;;;;;;60.30;24.15;;;;;;;;;;5115149;28;20169;-40
2021/05/15 13:33:00;;;;;;;63.75;25.00;;;;;;;;;;5118449;28;20184;-40
2021/05/15 13:35:26;;;;;;;60.80;24.40;;;;;;;;;;5118463;28;20260;-40
2021/05/15 13:37:52;;;;;;;65.90;25.30;;;;;;;;;;5117875;28;20226;-40
2021/05/15 13:40:18;;;;;;;55.22;23.83;;;;;;;;;;5116687;28;20197;-40
2021/05/15 13:42:45;;;;;;;59.95;24.25;;;;;;;;;;5117394;28;20279;-40
2021/05/15 13:45:11;;;;;;;63.55;24.05;;;;;;;;;;5118167;28;20157;-40
2021/05/15 13:47:37;;;;;;;54.67;24.45;;;;;;;;;;5117887;28;20185;-40
2021/05/15 13:50:03;;;;;;;63.67;24.75;;;;;;;;;;5104366;28;20202;-40
2021/05/15 13:52:29;;;;;;;53.20;23.70;;;;;;;;;;5108261;28;20212;-40
2021/05/15 13:54:55;;;;;;;61.70;24.33;;;;;;;;;;5118117;28;20169;-40
2021/05/15 13:57:22;;;;;;;51.75;23.85;;;;;;;;;;5116596;28;20252;-40
2021/05/15 13:59:48;;;;;;;47.10;22.88;;;;;;;;;;5113728;28;20591;-40
2021/05/15 14:02:14;;;;;;;54.60;24.02;;;;;;;;;;5107259;28;20174;-40
2021/05/15 14:04:40;;;;;;;54.92;22.67;;;;;;;;;;5117552;28;20169;-40
2021/05/15 14:07:06;;;;;;;50.78;21.63;;;;;;;;;;5117444;28;20573;-40
2021/05/15 14:09:32;;;;;;;49.85;21.75;;;;;;;;;;5116948;28;20705;-40
2021/05/15 14:11:58;;;;;;;46.60;21.40;;;;;;;;;;5116366;28;20165;-39
2021/05/15 14:14:24;;;;;;;55.75;22.77;;;;;;;;;;5112936;28;20202;-41
2021/05/15 14:16:50;;;;;;;43.80;20.73;;;;;;;;;;5111744;28;20626;-39
2021/05/15 14:19:16;;;;;;;49.45;21.55;;;;;;;;;;5111222;28;20170;-39
2021/05/15 14:21:42;;;;;;;42.72;20.33;;;;;;;;;;5115674;28;20189;-40
2021/05/15 14:24:08;;;;;;;45.25;21.17;;;;;;;;;;5113851;28;20205;-40
2021/05/15 14:26:34;;;;;;;55.63;22.95;;;;;;;;;;5116812;28;20183;-40
2021/05/15 14:29:00;;;;;;;46.50;20.20;;;;;;;;;;5117201;28;20161;-40
2021/05/15 14:31:26;;;;;;;49.83;20.80;;;;;;;;;;5110466;28;20178;-40